sensor_id;sensor_type;location;lat;lon;timestamp;pressure;altitude;pressure_sealevel;temperature;humidity
46598;BME280;32318;48.858;8.252;2024-02-26T00:01:10;98320.03;;;9.63;49.17
46598;BME280;32318;48.858;8.252;2024-02-26T00:09:10;98335.19;;;9.56;50.40
46598;BME280;32318;48.858;8.252;2024-02-26T00:17:10;98333.94;;;9.38;51.43
46598;BME280;32318;48.858;8.252;2024-02-26T00:25:11;98337.81;;;9.42;52.67
46598;BME280;32318;48.858;8.252;2024-02-26T00:33:14;98333.09;;;9.38;53.39
46598;BME280;32318;48.858;8.252;2024-02-26T00:41:14;98343.38;;;9.28;54.72
46598;BME280;32318;48.858;8.252;2024-02-26T00:49:14;98352.56;;;9.25;56.68
46598;BME280;32318;48.858;8.252;2024-02-26T00:57:14;98346.00;;;9.14;59.97
46598;BME280;32318;48.858;8.252;2024-02-26T01:05:15;98348.81;;;8.99;59.91
46598;BME280;32318;48.858;8.252;2024-02-26T01:13:16;98354.69;;;8.81;64.47
46598;BME280;32318;48.858;8.252;2024-02-26T01:21:16;98354.03;;;8.72;63.20
46598;BME280;32318;48.858;8.252;2024-02-26T01:29:17;98359.94;;;8.61;65.70
46598;BME280;32318;48.858;8.252;2024-02-26T01:37:17;98377.50;;;8.55;65.83
46598;BME280;32318;48.858;8.252;2024-02-26T01:45:18;98397.88;;;8.41;67.68
46598;BME280;32318;48.858;8.252;2024-02-26T01:53:24;98405.31;;;8.24;68.28
46598;BME280;32318;48.858;8.252;2024-02-26T02:01:29;98398.06;;;8.11;69.39
46598;BME280;32318;48.858;8.252;2024-02-26T02:09:31;98396.00;;;8.07;72.86
46598;BME280;32318;48.858;8.252;2024-02-26T02:17:32;98384.31;;;8.01;72.62
46598;BME280;32318;48.858;8.252;2024-02-26T02:25:32;98379.97;;;7.93;72.13
46598;BME280;32318;48.858;8.252;2024-02-26T02:33:34;98378.69;;;7.89;72.69
46598;BME280;32318;48.858;8.252;2024-02-26T02:41:37;98365.59;;;7.88;72.67
46598;BME280;32318;48.858;8.252;2024-02-26T02:49:37;98359.06;;;7.83;74.98
46598;BME280;32318;48.858;8.252;2024-02-26T02:57:37;98352.66;;;7.78;72.04
46598;BME280;32318;48.858;8.252;2024-02-26T03:05:41;98350.31;;;7.68;73.10
46598;BME280;32318;48.858;8.252;2024-02-26T03:13:41;98348.88;;;7.65;71.22
46598;BME280;32318;48.858;8.252;2024-02-26T03:21:42;98332.44;;;7.77;70.89
46598;BME280;32318;48.858;8.252;2024-02-26T03:29:42;98316.78;;;7.60;72.43
46598;BME280;32318;48.858;8.252;2024-02-26T03:37:42;98310.81;;;7.58;73.97
46598;BME280;32318;48.858;8.252;2024-02-26T03:45:43;98292.91;;;7.38;74.84
46598;BME280;32318;48.858;8.252;2024-02-26T03:53:43;98283.28;;;7.37;75.85
46598;BME280;32318;48.858;8.252;2024-02-26T04:01:46;98292.09;;;7.38;75.92
46598;BME280;32318;48.858;8.252;2024-02-26T04:09:47;98297.78;;;7.35;76.64
46598;BME280;32318;48.858;8.252;2024-02-26T04:17:47;98303.91;;;7.35;77.25
46598;BME280;32318;48.858;8.252;2024-02-26T04:25:47;98311.63;;;7.30;78.48
46598;BME280;32318;48.858;8.252;2024-02-26T04:33:48;98322.63;;;7.27;80.17
46598;BME280;32318;48.858;8.252;2024-02-26T04:41:48;98318.00;;;7.36;78.68
46598;BME280;32318;48.858;8.252;2024-02-26T04:49:51;98336.38;;;7.37;79.08
46598;BME280;32318;48.858;8.252;2024-02-26T04:57:52;98345.63;;;7.42;79.61
46598;BME280;32318;48.858;8.252;2024-02-26T05:05:52;98364.84;;;7.44;80.40
46598;BME280;32318;48.858;8.252;2024-02-26T05:13:52;98371.81;;;7.45;80.41
46598;BME280;32318;48.858;8.252;2024-02-26T05:21:53;98377.13;;;7.45;80.14
46598;BME280;32318;48.858;8.252;2024-02-26T05:29:53;98385.00;;;7.38;82.78
46598;BME280;32318;48.858;8.252;2024-02-26T05:37:54;98379.91;;;7.36;83.35
46598;BME280;32318;48.858;8.252;2024-02-26T05:45:54;98384.38;;;7.36;84.43
46598;BME280;32318;48.858;8.252;2024-02-26T05:53:54;98386.00;;;7.37;84.22
46598;BME280;32318;48.858;8.252;2024-02-26T06:01:55;98382.56;;;7.36;85.09
46598;BME280;32318;48.858;8.252;2024-02-26T06:09:55;98398.66;;;7.35;85.45
46598;BME280;32318;48.858;8.252;2024-02-26T06:17:55;98401.13;;;7.36;85.84
46598;BME280;32318;48.858;8.252;2024-02-26T06:25:56;98414.00;;;7.40;83.74
46598;BME280;32318;48.858;8.252;2024-02-26T06:33:56;98417.09;;;7.43;85.20
46598;BME280;32318;48.858;8.252;2024-02-26T06:41:56;98421.41;;;7.44;85.58
46598;BME280;32318;48.858;8.252;2024-02-26T06:50:00;98433.59;;;7.38;86.21
46598;BME280;32318;48.858;8.252;2024-02-26T06:58:01;98436.09;;;7.40;84.44
46598;BME280;32318;48.858;8.252;2024-02-26T07:06:01;98454.22;;;7.36;87.30
46598;BME280;32318;48.858;8.252;2024-02-26T07:14:02;98450.19;;;7.41;87.24
46598;BME280;32318;48.858;8.252;2024-02-26T07:22:02;98447.97;;;7.44;85.46
46598;BME280;32318;48.858;8.252;2024-02-26T07:30:03;98440.88;;;7.51;80.82
46598;BME280;32318;48.858;8.252;2024-02-26T07:38:03;98436.00;;;7.55;81.29
46598;BME280;32318;48.858;8.252;2024-02-26T07:46:03;98441.31;;;7.55;82.29
46598;BME280;32318;48.858;8.252;2024-02-26T07:54:04;98458.91;;;7.56;82.75
46598;BME280;32318;48.858;8.252;2024-02-26T08:02:04;98465.44;;;7.53;84.05
46598;BME280;32318;48.858;8.252;2024-02-26T08:10:06;98461.00;;;7.61;85.02
46598;BME280;32318;48.858;8.252;2024-02-26T08:18:07;98465.09;;;7.63;85.17
46598;BME280;32318;48.858;8.252;2024-02-26T08:26:07;98468.41;;;7.87;85.82
46598;BME280;32318;48.858;8.252;2024-02-26T08:34:10;98480.44;;;8.05;85.69
46598;BME280;32318;48.858;8.252;2024-02-26T08:42:10;98482.28;;;8.32;86.24
46598;BME280;32318;48.858;8.252;2024-02-26T08:50:11;98497.06;;;8.63;85.47
46598;BME280;32318;48.858;8.252;2024-02-26T08:58:12;98496.75;;;8.80;85.12
46598;BME280;32318;48.858;8.252;2024-02-26T09:06:14;98499.31;;;9.02;85.17
46598;BME280;32318;48.858;8.252;2024-02-26T09:14:14;98498.13;;;9.11;85.93
46598;BME280;32318;48.858;8.252;2024-02-26T09:22:15;98495.28;;;9.19;85.91
46598;BME280;32318;48.858;8.252;2024-02-26T09:30:15;98506.81;;;9.26;84.97
46598;BME280;32318;48.858;8.252;2024-02-26T09:38:15;98517.69;;;9.32;85.03
46598;BME280;32318;48.858;8.252;2024-02-26T09:46:16;98517.13;;;9.43;84.81
46598;BME280;32318;48.858;8.252;2024-02-26T09:54:17;98521.66;;;9.49;84.89
46598;BME280;32318;48.858;8.252;2024-02-26T10:02:19;98526.63;;;9.66;84.65
46598;BME280;32318;48.858;8.252;2024-02-26T10:10:22;98532.22;;;9.84;85.16
46598;BME280;32318;48.858;8.252;2024-02-26T10:18:23;98533.88;;;9.99;85.33
46598;BME280;32318;48.858;8.252;2024-02-26T10:26:24;98545.59;;;10.25;84.67
46598;BME280;32318;48.858;8.252;2024-02-26T10:34:24;98541.31;;;10.50;84.02
46598;BME280;32318;48.858;8.252;2024-02-26T10:42:26;98559.59;;;10.74;83.47
46598;BME280;32318;48.858;8.252;2024-02-26T10:50:26;98556.31;;;10.78;81.85
46598;BME280;32318;48.858;8.252;2024-02-26T10:58:27;98562.22;;;10.94;80.76
46598;BME280;32318;48.858;8.252;2024-02-26T11:06:27;98571.44;;;11.11;78.74
46598;BME280;32318;48.858;8.252;2024-02-26T11:14:29;98585.63;;;11.05;78.79
46598;BME280;32318;48.858;8.252;2024-02-26T11:22:29;98590.34;;;11.17;78.68
46598;BME280;32318;48.858;8.252;2024-02-26T11:30:32;98569.53;;;11.39;77.72
46598;BME280;32318;48.858;8.252;2024-02-26T11:38:34;98566.75;;;11.66;75.77
46598;BME280;32318;48.858;8.252;2024-02-26T11:46:40;98591.00;;;11.64;75.96
46598;BME280;32318;48.858;8.252;2024-02-26T11:54:48;98585.22;;;11.74;75.02
46598;BME280;32318;48.858;8.252;2024-02-26T12:02:50;98587.19;;;11.92;73.47
46598;BME280;32318;48.858;8.252;2024-02-26T12:10:58;98580.97;;;12.05;72.44
46598;BME280;32318;48.858;8.252;2024-02-26T12:19:03;98575.50;;;12.25;70.69
46598;BME280;32318;48.858;8.252;2024-02-26T12:27:04;98578.38;;;12.30;68.91
46598;BME280;32318;48.858;8.252;2024-02-26T12:35:05;98582.50;;;12.26;68.95
46598;BME280;32318;48.858;8.252;2024-02-26T12:43:07;98589.84;;;12.37;68.58
46598;BME280;32318;48.858;8.252;2024-02-26T12:51:16;98595.28;;;12.56;68.43
46598;BME280;32318;48.858;8.252;2024-02-26T12:59:17;98593.56;;;12.87;66.29
46598;BME280;32318;48.858;8.252;2024-02-26T13:07:17;98596.38;;;12.92;65.42
46598;BME280;32318;48.858;8.252;2024-02-26T13:15:19;98598.25;;;12.92;65.71
46598;BME280;32318;48.858;8.252;2024-02-26T13:23:20;98597.16;;;12.99;64.33
46598;BME280;32318;48.858;8.252;2024-02-26T13:31:20;98599.84;;;13.18;61.26
46598;BME280;32318;48.858;8.252;2024-02-26T13:39:24;98612.38;;;13.24;61.21
46598;BME280;32318;48.858;8.252;2024-02-26T13:47:25;98602.69;;;13.23;61.55
46598;BME280;32318;48.858;8.252;2024-02-26T13:55:27;98604.63;;;13.16;61.48
46598;BME280;32318;48.858;8.252;2024-02-26T14:03:28;98608.38;;;13.33;61.16
46598;BME280;32318;48.858;8.252;2024-02-26T14:11:28;98596.84;;;13.52;60.57
46598;BME280;32318;48.858;8.252;2024-02-26T14:19:29;98598.44;;;13.41;62.04
46598;BME280;32318;48.858;8.252;2024-02-26T14:27:29;98608.00;;;13.48;60.31
46598;BME280;32318;48.858;8.252;2024-02-26T14:35:30;98608.25;;;13.65;59.10
46598;BME280;32318;48.858;8.252;2024-02-26T14:43:30;98610.69;;;13.67;59.39
46598;BME280;32318;48.858;8.252;2024-02-26T14:51:31;98621.53;;;13.60;59.84
46598;BME280;32318;48.858;8.252;2024-02-26T14:59:32;98635.50;;;13.44;60.10
46598;BME280;32318;48.858;8.252;2024-02-26T15:07:33;98633.50;;;13.39;60.70
46598;BME280;32318;48.858;8.252;2024-02-26T15:15:33;98638.78;;;13.46;60.07
46598;BME280;32318;48.858;8.252;2024-02-26T15:23:35;98626.88;;;13.42;60.11
46598;BME280;32318;48.858;8.252;2024-02-26T15:31:37;98639.50;;;13.34;59.90
46598;BME280;32318;48.858;8.252;2024-02-26T15:39:37;98638.94;;;13.51;58.57
46598;BME280;32318;48.858;8.252;2024-02-26T15:47:37;98654.44;;;13.49;58.48
46598;BME280;32318;48.858;8.252;2024-02-26T15:55:37;98647.53;;;13.34;59.47
46598;BME280;32318;48.858;8.252;2024-02-26T16:03:38;98665.91;;;13.31;59.11
46598;BME280;32318;48.858;8.252;2024-02-26T16:11:39;98667.91;;;13.17;59.48
46598;BME280;32318;48.858;8.252;2024-02-26T16:19:39;98681.13;;;13.12;59.37
46598;BME280;32318;48.858;8.252;2024-02-26T16:27:40;98708.75;;;13.12;59.15
46598;BME280;32318;48.858;8.252;2024-02-26T16:35:43;98705.13;;;13.00;59.87
46598;BME280;32318;48.858;8.252;2024-02-26T16:43:44;98719.94;;;13.02;60.21
46598;BME280;32318;48.858;8.252;2024-02-26T16:51:44;98731.19;;;12.86;61.11
46598;BME280;32318;48.858;8.252;2024-02-26T16:59:50;98733.31;;;12.77;62.01
46598;BME280;32318;48.858;8.252;2024-02-26T17:07:50;98747.78;;;12.69;62.38
46598;BME280;32318;48.858;8.252;2024-02-26T17:15:54;98761.28;;;12.43;63.36
46598;BME280;32318;48.858;8.252;2024-02-26T17:23:55;98779.41;;;12.40;63.55
46598;BME280;32318;48.858;8.252;2024-02-26T17:31:55;98785.63;;;12.28;64.27
46598;BME280;32318;48.858;8.252;2024-02-26T17:39:55;98800.50;;;12.17;64.60
46598;BME280;32318;48.858;8.252;2024-02-26T17:47:55;98820.06;;;12.11;65.00
46598;BME280;32318;48.858;8.252;2024-02-26T17:55:56;98831.81;;;11.96;65.65
46598;BME280;32318;48.858;8.252;2024-02-26T18:03:56;98848.25;;;12.06;65.02
46598;BME280;32318;48.858;8.252;2024-02-26T18:11:57;98864.94;;;12.08;64.38
46598;BME280;32318;48.858;8.252;2024-02-26T18:19:57;98874.19;;;12.06;64.26
46598;BME280;32318;48.858;8.252;2024-02-26T18:28:04;98878.94;;;12.04;62.98
46598;BME280;32318;48.858;8.252;2024-02-26T18:36:08;98885.09;;;12.11;60.71
46598;BME280;32318;48.858;8.252;2024-02-26T18:44:11;98906.47;;;11.91;61.58
46598;BME280;32318;48.858;8.252;2024-02-26T18:52:11;98912.63;;;11.78;62.30
46598;BME280;32318;48.858;8.252;2024-02-26T19:00:12;98909.97;;;11.85;61.44
46598;BME280;32318;48.858;8.252;2024-02-26T19:08:12;98927.84;;;11.71;62.24
46598;BME280;32318;48.858;8.252;2024-02-26T19:16:14;98936.66;;;11.38;64.69
46598;BME280;32318;48.858;8.252;2024-02-26T19:24:16;98967.00;;;11.23;66.78
46598;BME280;32318;48.858;8.252;2024-02-26T19:32:17;98972.78;;;11.27;67.44
46598;BME280;32318;48.858;8.252;2024-02-26T19:40:18;98980.34;;;11.17;68.06
46598;BME280;32318;48.858;8.252;2024-02-26T19:48:19;99001.00;;;11.01;68.86
46598;BME280;32318;48.858;8.252;2024-02-26T19:56:27;99019.59;;;10.81;69.94
46598;BME280;32318;48.858;8.252;2024-02-26T20:04:36;99035.09;;;10.64;70.71
46598;BME280;32318;48.858;8.252;2024-02-26T20:12:37;99038.72;;;10.56;70.91
46598;BME280;32318;48.858;8.252;2024-02-26T20:20:37;99043.78;;;10.44;71.84
46598;BME280;32318;48.858;8.252;2024-02-26T20:28:39;99056.88;;;10.39;72.16
46598;BME280;32318;48.858;8.252;2024-02-26T20:36:39;99070.56;;;10.36;71.96
46598;BME280;32318;48.858;8.252;2024-02-26T20:44:39;99074.72;;;10.39;71.43
46598;BME280;32318;48.858;8.252;2024-02-26T20:52:40;99095.94;;;10.32;71.06
46598;BME280;32318;48.858;8.252;2024-02-26T21:00:40;99106.50;;;10.18;71.76
46598;BME280;32318;48.858;8.252;2024-02-26T21:08:42;99109.28;;;10.10;72.51
46598;BME280;32318;48.858;8.252;2024-02-26T21:16:43;99120.41;;;10.14;72.37
46598;BME280;32318;48.858;8.252;2024-02-26T21:24:44;99123.03;;;10.29;70.55
46598;BME280;32318;48.858;8.252;2024-02-26T21:32:44;99135.34;;;10.30;69.61
46598;BME280;32318;48.858;8.252;2024-02-26T21:40:48;99154.88;;;10.15;69.84
46598;BME280;32318;48.858;8.252;2024-02-26T21:48:48;99181.41;;;10.02;70.24
46598;BME280;32318;48.858;8.252;2024-02-26T21:56:49;99196.22;;;9.89;70.88
46598;BME280;32318;48.858;8.252;2024-02-26T22:04:52;99211.13;;;9.84;70.71
46598;BME280;32318;48.858;8.252;2024-02-26T22:12:53;99194.66;;;9.80;70.49
46598;BME280;32318;48.858;8.252;2024-02-26T22:20:54;99205.63;;;9.70;71.09
46598;BME280;32318;48.858;8.252;2024-02-26T22:28:54;99227.41;;;9.74;70.29
46598;BME280;32318;48.858;8.252;2024-02-26T22:36:54;99232.63;;;9.82;69.59
46598;BME280;32318;48.858;8.252;2024-02-26T22:44:55;99236.13;;;9.68;69.56
46598;BME280;32318;48.858;8.252;2024-02-26T22:52:55;99236.22;;;9.60;69.85
46598;BME280;32318;48.858;8.252;2024-02-26T23:00:55;99243.38;;;9.44;70.23
46598;BME280;32318;48.858;8.252;2024-02-26T23:08:55;99242.81;;;9.10;71.69
46598;BME280;32318;48.858;8.252;2024-02-26T23:16:56;99262.94;;;8.90;72.59
46598;BME280;32318;48.858;8.252;2024-02-26T23:24:56;99281.28;;;8.85;73.47
46598;BME280;32318;48.858;8.252;2024-02-26T23:32:56;99286.94;;;8.82;73.36
46598;BME280;32318;48.858;8.252;2024-02-26T23:40:56;99294.13;;;8.81;72.99
46598;BME280;32318;48.858;8.252;2024-02-26T23:48:57;99305.28;;;8.76;73.34
46598;BME280;32318;48.858;8.252;2024-02-26T23:56:57;99308.47;;;8.72;73.45
